sensor_id;sensor_type;location;lat;lon;timestamp;P1;durP1;ratioP1;P2;durP2;ratioP2
65757;SDS011;52495;52.208;5.158;2022-08-14T00:01:19;6.03;;;4.60;;
65757;SDS011;52495;52.208;5.158;2022-08-14T00:03:46;7.35;;;4.78;;
65757;SDS011;52495;52.208;5.158;2022-08-14T00:06:13;5.90;;;4.47;;
65757;SDS011;52495;52.208;5.158;2022-08-14T00:08:40;5.45;;;4.90;;
65757;SDS011;52495;52.208;5.158;2022-08-14T00:11:07;8.52;;;4.72;;
65757;SDS011;52495;52.208;5.158;2022-08-14T00:13:34;7.18;;;4.80;;
65757;SDS011;52495;52.208;5.158;2022-08-14T00:16:03;8.15;;;5.20;;
65757;SDS011;52495;52.208;5.158;2022-08-14T00:18:30;7.93;;;4.38;;
65757;SDS011;52495;52.208;5.158;2022-08-14T00:20:57;7.50;;;5.28;;
65757;SDS011;52495;52.208;5.158;2022-08-14T00:23:24;8.65;;;4.70;;
65757;SDS011;52495;52.208;5.158;2022-08-14T00:25:52;6.80;;;4.70;;
65757;SDS011;52495;52.208;5.158;2022-08-14T00:28:21;7.95;;;4.90;;
65757;SDS011;52495;52.208;5.158;2022-08-14T00:30:51;7.28;;;4.80;;
65757;SDS011;52495;52.208;5.158;2022-08-14T00:33:24;7.25;;;5.20;;
65757;SDS011;52495;52.208;5.158;2022-08-14T00:35:51;5.65;;;5.05;;
65757;SDS011;52495;52.208;5.158;2022-08-14T00:38:18;6.68;;;5.35;;
65757;SDS011;52495;52.208;5.158;2022-08-14T00:40:45;7.75;;;5.13;;
65757;SDS011;52495;52.208;5.158;2022-08-14T00:43:12;6.75;;;5.30;;
65757;SDS011;52495;52.208;5.158;2022-08-14T00:45:39;5.72;;;4.78;;
65757;SDS011;52495;52.208;5.158;2022-08-14T00:48:06;7.15;;;5.10;;
65757;SDS011;52495;52.208;5.158;2022-08-14T00:50:36;6.30;;;5.05;;
65757;SDS011;52495;52.208;5.158;2022-08-14T00:53:03;7.63;;;5.28;;
65757;SDS011;52495;52.208;5.158;2022-08-14T00:55:31;6.57;;;5.53;;
65757;SDS011;52495;52.208;5.158;2022-08-14T00:58:01;6.18;;;5.05;;
65757;SDS011;52495;52.208;5.158;2022-08-14T01:00:46;7.05;;;5.18;;
65757;SDS011;52495;52.208;5.158;2022-08-14T01:03:14;6.15;;;4.97;;
65757;SDS011;52495;52.208;5.158;2022-08-14T01:05:43;9.10;;;5.55;;
65757;SDS011;52495;52.208;5.158;2022-08-14T01:08:15;7.50;;;5.82;;
65757;SDS011;52495;52.208;5.158;2022-08-14T01:10:44;7.32;;;5.55;;
65757;SDS011;52495;52.208;5.158;2022-08-14T01:15:45;6.93;;;5.55;;
65757;SDS011;52495;52.208;5.158;2022-08-14T01:18:13;7.65;;;5.82;;
65757;SDS011;52495;52.208;5.158;2022-08-14T01:20:59;6.78;;;5.30;;
65757;SDS011;52495;52.208;5.158;2022-08-14T01:23:32;7.38;;;5.60;;
65757;SDS011;52495;52.208;5.158;2022-08-14T01:26:01;13.38;;;5.38;;
65757;SDS011;52495;52.208;5.158;2022-08-14T01:28:28;9.98;;;6.03;;
65757;SDS011;52495;52.208;5.158;2022-08-14T01:30:58;7.78;;;5.28;;
65757;SDS011;52495;52.208;5.158;2022-08-14T01:33:26;7.40;;;5.40;;
65757;SDS011;52495;52.208;5.158;2022-08-14T01:35:54;7.25;;;5.53;;
65757;SDS011;52495;52.208;5.158;2022-08-14T01:38:23;7.72;;;5.80;;
65757;SDS011;52495;52.208;5.158;2022-08-14T01:40:52;10.43;;;5.45;;
65757;SDS011;52495;52.208;5.158;2022-08-14T01:43:19;8.88;;;5.82;;
65757;SDS011;52495;52.208;5.158;2022-08-14T01:45:46;6.32;;;5.45;;
65757;SDS011;52495;52.208;5.158;2022-08-14T01:48:16;8.27;;;5.55;;
65757;SDS011;52495;52.208;5.158;2022-08-14T01:50:43;9.32;;;5.65;;
65757;SDS011;52495;52.208;5.158;2022-08-14T01:53:10;7.95;;;5.90;;
65757;SDS011;52495;52.208;5.158;2022-08-14T01:55:37;7.57;;;5.68;;
65757;SDS011;52495;52.208;5.158;2022-08-14T01:58:05;7.35;;;5.68;;
65757;SDS011;52495;52.208;5.158;2022-08-14T02:00:36;8.10;;;6.33;;
65757;SDS011;52495;52.208;5.158;2022-08-14T02:03:03;8.63;;;6.15;;
65757;SDS011;52495;52.208;5.158;2022-08-14T02:05:31;7.57;;;5.82;;
65757;SDS011;52495;52.208;5.158;2022-08-14T02:07:58;7.47;;;5.82;;
65757;SDS011;52495;52.208;5.158;2022-08-14T02:10:24;8.20;;;5.75;;
65757;SDS011;52495;52.208;5.158;2022-08-14T02:12:53;8.30;;;6.47;;
65757;SDS011;52495;52.208;5.158;2022-08-14T02:15:22;7.63;;;6.28;;
65757;SDS011;52495;52.208;5.158;2022-08-14T02:17:50;7.38;;;6.10;;
65757;SDS011;52495;52.208;5.158;2022-08-14T02:20:17;7.47;;;6.35;;
65757;SDS011;52495;52.208;5.158;2022-08-14T02:22:44;9.00;;;6.75;;
65757;SDS011;52495;52.208;5.158;2022-08-14T02:25:14;11.52;;;6.47;;
65757;SDS011;52495;52.208;5.158;2022-08-14T02:27:41;7.68;;;6.63;;
65757;SDS011;52495;52.208;5.158;2022-08-14T02:30:09;9.80;;;6.97;;
65757;SDS011;52495;52.208;5.158;2022-08-14T02:32:38;7.53;;;6.72;;
65757;SDS011;52495;52.208;5.158;2022-08-14T02:35:06;8.60;;;5.95;;
65757;SDS011;52495;52.208;5.158;2022-08-14T02:37:37;8.07;;;5.80;;
65757;SDS011;52495;52.208;5.158;2022-08-14T02:40:05;8.35;;;6.90;;
65757;SDS011;52495;52.208;5.158;2022-08-14T02:42:33;10.07;;;6.93;;
65757;SDS011;52495;52.208;5.158;2022-08-14T02:45:00;10.52;;;6.55;;
65757;SDS011;52495;52.208;5.158;2022-08-14T02:47:26;7.10;;;6.40;;
65757;SDS011;52495;52.208;5.158;2022-08-14T02:49:54;8.68;;;6.50;;
65757;SDS011;52495;52.208;5.158;2022-08-14T02:52:21;8.48;;;6.78;;
65757;SDS011;52495;52.208;5.158;2022-08-14T02:54:50;9.13;;;6.80;;
65757;SDS011;52495;52.208;5.158;2022-08-14T02:57:17;7.80;;;6.90;;
65757;SDS011;52495;52.208;5.158;2022-08-14T02:59:46;7.82;;;7.00;;
65757;SDS011;52495;52.208;5.158;2022-08-14T03:02:15;10.27;;;7.45;;
65757;SDS011;52495;52.208;5.158;2022-08-14T03:04:41;10.18;;;6.78;;
65757;SDS011;52495;52.208;5.158;2022-08-14T03:07:10;10.00;;;6.85;;
65757;SDS011;52495;52.208;5.158;2022-08-14T03:09:37;7.75;;;6.95;;
65757;SDS011;52495;52.208;5.158;2022-08-14T03:12:04;8.82;;;6.68;;
65757;SDS011;52495;52.208;5.158;2022-08-14T03:14:31;7.80;;;6.95;;
65757;SDS011;52495;52.208;5.158;2022-08-14T03:17:02;8.75;;;6.90;;
65757;SDS011;52495;52.208;5.158;2022-08-14T03:19:29;8.63;;;7.22;;
65757;SDS011;52495;52.208;5.158;2022-08-14T03:21:56;10.23;;;6.47;;
65757;SDS011;52495;52.208;5.158;2022-08-14T03:24:24;8.85;;;6.57;;
65757;SDS011;52495;52.208;5.158;2022-08-14T03:26:51;8.75;;;6.63;;
65757;SDS011;52495;52.208;5.158;2022-08-14T03:29:20;7.80;;;6.93;;
65757;SDS011;52495;52.208;5.158;2022-08-14T03:31:47;7.28;;;6.57;;
65757;SDS011;52495;52.208;5.158;2022-08-14T03:34:16;10.95;;;7.13;;
65757;SDS011;52495;52.208;5.158;2022-08-14T03:36:47;8.48;;;6.65;;
65757;SDS011;52495;52.208;5.158;2022-08-14T03:39:21;7.88;;;7.15;;
65757;SDS011;52495;52.208;5.158;2022-08-14T03:41:49;10.50;;;6.80;;
65757;SDS011;52495;52.208;5.158;2022-08-14T03:44:17;7.47;;;6.68;;
65757;SDS011;52495;52.208;5.158;2022-08-14T03:46:45;8.27;;;6.75;;
65757;SDS011;52495;52.208;5.158;2022-08-14T03:49:12;8.18;;;7.00;;
65757;SDS011;52495;52.208;5.158;2022-08-14T03:51:40;10.43;;;7.32;;
65757;SDS011;52495;52.208;5.158;2022-08-14T03:54:07;8.73;;;7.50;;
65757;SDS011;52495;52.208;5.158;2022-08-14T03:56:34;8.52;;;6.93;;
65757;SDS011;52495;52.208;5.158;2022-08-14T03:59:04;10.23;;;7.70;;
65757;SDS011;52495;52.208;5.158;2022-08-14T04:01:33;8.85;;;7.85;;
65757;SDS011;52495;52.208;5.158;2022-08-14T04:04:00;9.00;;;7.80;;
65757;SDS011;52495;52.208;5.158;2022-08-14T04:06:30;7.95;;;7.15;;
65757;SDS011;52495;52.208;5.158;2022-08-14T04:08:57;9.55;;;8.13;;
65757;SDS011;52495;52.208;5.158;2022-08-14T04:11:24;8.02;;;7.22;;
65757;SDS011;52495;52.208;5.158;2022-08-14T04:13:53;9.90;;;7.40;;
65757;SDS011;52495;52.208;5.158;2022-08-14T04:16:21;10.20;;;7.85;;
65757;SDS011;52495;52.208;5.158;2022-08-14T04:18:49;11.48;;;8.07;;
65757;SDS011;52495;52.208;5.158;2022-08-14T04:21:18;9.38;;;8.13;;
65757;SDS011;52495;52.208;5.158;2022-08-14T04:23:47;10.13;;;8.27;;
65757;SDS011;52495;52.208;5.158;2022-08-14T04:26:14;10.55;;;7.90;;
65757;SDS011;52495;52.208;5.158;2022-08-14T04:28:43;8.40;;;7.53;;
65757;SDS011;52495;52.208;5.158;2022-08-14T04:31:10;13.48;;;8.93;;
65757;SDS011;52495;52.208;5.158;2022-08-14T04:33:39;9.35;;;8.02;;
65757;SDS011;52495;52.208;5.158;2022-08-14T04:36:06;8.95;;;8.05;;
65757;SDS011;52495;52.208;5.158;2022-08-14T04:38:33;10.82;;;8.07;;
65757;SDS011;52495;52.208;5.158;2022-08-14T04:41:17;9.07;;;8.18;;
65757;SDS011;52495;52.208;5.158;2022-08-14T04:44:13;11.20;;;8.93;;
65757;SDS011;52495;52.208;5.158;2022-08-14T04:46:40;8.65;;;7.53;;
65757;SDS011;52495;52.208;5.158;2022-08-14T04:49:30;11.88;;;8.43;;
65757;SDS011;52495;52.208;5.158;2022-08-14T04:51:56;10.57;;;8.43;;
65757;SDS011;52495;52.208;5.158;2022-08-14T04:54:23;11.77;;;8.65;;
65757;SDS011;52495;52.208;5.158;2022-08-14T04:56:51;16.98;;;8.55;;
65757;SDS011;52495;52.208;5.158;2022-08-14T04:59:19;8.70;;;7.75;;
65757;SDS011;52495;52.208;5.158;2022-08-14T05:01:45;11.75;;;8.98;;
65757;SDS011;52495;52.208;5.158;2022-08-14T05:04:12;10.05;;;8.73;;
65757;SDS011;52495;52.208;5.158;2022-08-14T05:06:41;11.07;;;8.52;;
65757;SDS011;52495;52.208;5.158;2022-08-14T05:09:07;12.13;;;8.52;;
65757;SDS011;52495;52.208;5.158;2022-08-14T05:11:34;10.00;;;8.75;;
65757;SDS011;52495;52.208;5.158;2022-08-14T05:14:01;9.93;;;8.93;;
65757;SDS011;52495;52.208;5.158;2022-08-14T05:16:28;9.73;;;8.43;;
65757;SDS011;52495;52.208;5.158;2022-08-14T05:18:56;11.20;;;8.05;;
65757;SDS011;52495;52.208;5.158;2022-08-14T05:21:23;9.10;;;8.07;;
65757;SDS011;52495;52.208;5.158;2022-08-14T05:23:54;10.30;;;8.27;;
65757;SDS011;52495;52.208;5.158;2022-08-14T05:26:20;10.35;;;8.50;;
65757;SDS011;52495;52.208;5.158;2022-08-14T05:28:47;10.38;;;9.35;;
65757;SDS011;52495;52.208;5.158;2022-08-14T05:31:15;9.38;;;7.13;;
65757;SDS011;52495;52.208;5.158;2022-08-14T05:33:42;9.48;;;8.48;;
65757;SDS011;52495;52.208;5.158;2022-08-14T05:36:10;9.98;;;8.13;;
65757;SDS011;52495;52.208;5.158;2022-08-14T05:38:38;10.45;;;8.15;;
65757;SDS011;52495;52.208;5.158;2022-08-14T05:41:08;10.77;;;9.05;;
65757;SDS011;52495;52.208;5.158;2022-08-14T05:43:37;9.38;;;8.18;;
65757;SDS011;52495;52.208;5.158;2022-08-14T05:46:04;10.48;;;8.18;;
65757;SDS011;52495;52.208;5.158;2022-08-14T05:48:32;10.30;;;8.88;;
65757;SDS011;52495;52.208;5.158;2022-08-14T05:50:59;11.25;;;9.07;;
65757;SDS011;52495;52.208;5.158;2022-08-14T05:53:25;11.13;;;8.80;;
65757;SDS011;52495;52.208;5.158;2022-08-14T05:55:53;8.38;;;7.57;;
65757;SDS011;52495;52.208;5.158;2022-08-14T05:58:22;10.00;;;8.43;;
65757;SDS011;52495;52.208;5.158;2022-08-14T06:00:49;12.23;;;8.40;;
65757;SDS011;52495;52.208;5.158;2022-08-14T06:03:17;12.48;;;8.77;;
65757;SDS011;52495;52.208;5.158;2022-08-14T06:05:45;9.43;;;8.35;;
65757;SDS011;52495;52.208;5.158;2022-08-14T06:08:14;9.50;;;8.50;;
65757;SDS011;52495;52.208;5.158;2022-08-14T06:10:42;13.38;;;9.02;;
65757;SDS011;52495;52.208;5.158;2022-08-14T06:13:09;9.05;;;8.07;;
65757;SDS011;52495;52.208;5.158;2022-08-14T06:15:38;10.73;;;8.63;;
65757;SDS011;52495;52.208;5.158;2022-08-14T06:18:05;9.45;;;7.80;;
65757;SDS011;52495;52.208;5.158;2022-08-14T06:20:32;9.90;;;7.55;;
65757;SDS011;52495;52.208;5.158;2022-08-14T06:22:59;10.05;;;9.02;;
65757;SDS011;52495;52.208;5.158;2022-08-14T06:25:26;9.32;;;7.95;;
65757;SDS011;52495;52.208;5.158;2022-08-14T06:27:53;9.63;;;8.20;;
65757;SDS011;52495;52.208;5.158;2022-08-14T06:30:20;9.85;;;8.15;;
65757;SDS011;52495;52.208;5.158;2022-08-14T06:32:50;9.65;;;8.35;;
65757;SDS011;52495;52.208;5.158;2022-08-14T06:35:17;9.30;;;8.07;;
65757;SDS011;52495;52.208;5.158;2022-08-14T06:37:46;7.95;;;7.13;;
65757;SDS011;52495;52.208;5.158;2022-08-14T06:40:15;8.27;;;7.00;;
65757;SDS011;52495;52.208;5.158;2022-08-14T06:42:43;9.35;;;7.63;;
65757;SDS011;52495;52.208;5.158;2022-08-14T06:45:10;9.77;;;7.57;;
65757;SDS011;52495;52.208;5.158;2022-08-14T06:47:38;11.20;;;7.97;;
65757;SDS011;52495;52.208;5.158;2022-08-14T06:50:07;8.40;;;7.50;;
65757;SDS011;52495;52.208;5.158;2022-08-14T06:52:36;8.40;;;7.60;;
65757;SDS011;52495;52.208;5.158;2022-08-14T06:55:03;12.07;;;7.82;;
65757;SDS011;52495;52.208;5.158;2022-08-14T06:57:33;9.52;;;7.32;;
65757;SDS011;52495;52.208;5.158;2022-08-14T07:00:02;6.97;;;6.22;;
65757;SDS011;52495;52.208;5.158;2022-08-14T07:02:30;7.78;;;6.25;;
65757;SDS011;52495;52.208;5.158;2022-08-14T07:05:16;8.45;;;7.57;;
65757;SDS011;52495;52.208;5.158;2022-08-14T07:08:00;8.00;;;6.35;;
65757;SDS011;52495;52.208;5.158;2022-08-14T07:10:26;14.38;;;7.32;;
65757;SDS011;52495;52.208;5.158;2022-08-14T07:12:53;10.80;;;7.57;;
65757;SDS011;52495;52.208;5.158;2022-08-14T07:15:20;7.50;;;6.38;;
65757;SDS011;52495;52.208;5.158;2022-08-14T07:17:47;7.28;;;6.57;;
65757;SDS011;52495;52.208;5.158;2022-08-14T07:20:16;8.43;;;7.05;;
65757;SDS011;52495;52.208;5.158;2022-08-14T07:22:44;8.20;;;6.80;;
65757;SDS011;52495;52.208;5.158;2022-08-14T07:25:11;8.30;;;6.88;;
65757;SDS011;52495;52.208;5.158;2022-08-14T07:27:38;11.38;;;6.78;;
65757;SDS011;52495;52.208;5.158;2022-08-14T07:30:06;8.23;;;6.18;;
65757;SDS011;52495;52.208;5.158;2022-08-14T07:32:34;7.18;;;6.47;;
65757;SDS011;52495;52.208;5.158;2022-08-14T07:35:01;9.00;;;5.40;;
65757;SDS011;52495;52.208;5.158;2022-08-14T07:37:29;7.38;;;5.72;;
65757;SDS011;52495;52.208;5.158;2022-08-14T07:39:55;7.22;;;6.53;;
65757;SDS011;52495;52.208;5.158;2022-08-14T07:42:22;9.50;;;6.28;;
65757;SDS011;52495;52.208;5.158;2022-08-14T07:44:49;8.95;;;6.15;;
65757;SDS011;52495;52.208;5.158;2022-08-14T07:47:16;10.15;;;6.18;;
65757;SDS011;52495;52.208;5.158;2022-08-14T07:49:44;9.20;;;6.60;;
65757;SDS011;52495;52.208;5.158;2022-08-14T07:52:19;9.48;;;6.30;;
65757;SDS011;52495;52.208;5.158;2022-08-14T07:54:48;7.43;;;5.70;;
65757;SDS011;52495;52.208;5.158;2022-08-14T07:57:15;7.95;;;6.10;;
65757;SDS011;52495;52.208;5.158;2022-08-14T07:59:42;6.95;;;6.10;;
65757;SDS011;52495;52.208;5.158;2022-08-14T08:02:09;7.22;;;5.72;;
65757;SDS011;52495;52.208;5.158;2022-08-14T08:04:36;8.13;;;5.68;;
65757;SDS011;52495;52.208;5.158;2022-08-14T08:07:09;8.13;;;6.20;;
65757;SDS011;52495;52.208;5.158;2022-08-14T08:09:35;7.10;;;5.50;;
65757;SDS011;52495;52.208;5.158;2022-08-14T08:12:08;7.07;;;5.90;;
65757;SDS011;52495;52.208;5.158;2022-08-14T08:14:36;6.22;;;5.47;;
65757;SDS011;52495;52.208;5.158;2022-08-14T08:17:03;7.85;;;6.32;;
65757;SDS011;52495;52.208;5.158;2022-08-14T08:19:30;8.07;;;5.65;;
65757;SDS011;52495;52.208;5.158;2022-08-14T08:21:57;6.35;;;5.40;;
65757;SDS011;52495;52.208;5.158;2022-08-14T08:24:25;7.53;;;5.80;;
65757;SDS011;52495;52.208;5.158;2022-08-14T08:26:51;7.32;;;4.82;;
65757;SDS011;52495;52.208;5.158;2022-08-14T08:29:20;9.95;;;6.28;;
65757;SDS011;52495;52.208;5.158;2022-08-14T08:31:49;9.10;;;5.40;;
65757;SDS011;52495;52.208;5.158;2022-08-14T08:34:16;9.70;;;6.00;;
65757;SDS011;52495;52.208;5.158;2022-08-14T08:36:43;6.60;;;6.00;;
65757;SDS011;52495;52.208;5.158;2022-08-14T08:39:10;8.13;;;6.40;;
65757;SDS011;52495;52.208;5.158;2022-08-14T08:41:38;7.90;;;6.78;;
65757;SDS011;52495;52.208;5.158;2022-08-14T08:44:06;6.90;;;6.20;;
65757;SDS011;52495;52.208;5.158;2022-08-14T08:46:34;8.52;;;6.35;;
65757;SDS011;52495;52.208;5.158;2022-08-14T08:49:01;9.90;;;6.50;;
65757;SDS011;52495;52.208;5.158;2022-08-14T08:51:28;7.22;;;6.30;;
65757;SDS011;52495;52.208;5.158;2022-08-14T08:53:57;6.68;;;5.28;;
65757;SDS011;52495;52.208;5.158;2022-08-14T08:56:35;6.75;;;6.05;;
65757;SDS011;52495;52.208;5.158;2022-08-14T08:59:16;10.57;;;5.80;;
65757;SDS011;52495;52.208;5.158;2022-08-14T09:01:49;8.60;;;6.78;;
65757;SDS011;52495;52.208;5.158;2022-08-14T09:04:18;6.88;;;6.10;;
65757;SDS011;52495;52.208;5.158;2022-08-14T09:06:46;6.40;;;5.53;;
65757;SDS011;52495;52.208;5.158;2022-08-14T09:09:17;7.53;;;5.40;;
65757;SDS011;52495;52.208;5.158;2022-08-14T09:11:45;6.07;;;5.03;;
65757;SDS011;52495;52.208;5.158;2022-08-14T09:14:12;8.27;;;6.30;;
65757;SDS011;52495;52.208;5.158;2022-08-14T09:16:39;9.00;;;6.28;;
65757;SDS011;52495;52.208;5.158;2022-08-14T09:19:08;7.50;;;5.35;;
65757;SDS011;52495;52.208;5.158;2022-08-14T09:21:36;8.15;;;5.20;;
65757;SDS011;52495;52.208;5.158;2022-08-14T09:24:04;6.07;;;5.15;;
65757;SDS011;52495;52.208;5.158;2022-08-14T09:26:31;8.80;;;6.28;;
65757;SDS011;52495;52.208;5.158;2022-08-14T09:28:58;7.00;;;5.35;;
65757;SDS011;52495;52.208;5.158;2022-08-14T09:31:25;7.47;;;5.28;;
65757;SDS011;52495;52.208;5.158;2022-08-14T09:34:06;6.15;;;5.20;;
65757;SDS011;52495;52.208;5.158;2022-08-14T09:36:43;8.65;;;5.63;;
65757;SDS011;52495;52.208;5.158;2022-08-14T09:39:28;5.78;;;4.68;;
65757;SDS011;52495;52.208;5.158;2022-08-14T09:42:13;9.25;;;5.05;;
65757;SDS011;52495;52.208;5.158;2022-08-14T09:44:51;5.70;;;5.20;;
65757;SDS011;52495;52.208;5.158;2022-08-14T09:47:45;7.88;;;4.65;;
65757;SDS011;52495;52.208;5.158;2022-08-14T09:50:22;8.65;;;5.05;;
65757;SDS011;52495;52.208;5.158;2022-08-14T09:52:53;5.15;;;4.57;;
65757;SDS011;52495;52.208;5.158;2022-08-14T09:55:21;4.63;;;4.07;;
65757;SDS011;52495;52.208;5.158;2022-08-14T09:57:50;6.50;;;4.70;;
65757;SDS011;52495;52.208;5.158;2022-08-14T10:00:18;6.03;;;5.15;;
65757;SDS011;52495;52.208;5.158;2022-08-14T10:03:01;5.57;;;4.15;;
65757;SDS011;52495;52.208;5.158;2022-08-14T10:05:30;8.68;;;5.55;;
65757;SDS011;52495;52.208;5.158;2022-08-14T10:07:59;6.10;;;4.78;;
65757;SDS011;52495;52.208;5.158;2022-08-14T10:10:31;6.55;;;4.07;;
65757;SDS011;52495;52.208;5.158;2022-08-14T10:12:59;4.50;;;3.80;;
65757;SDS011;52495;52.208;5.158;2022-08-14T10:15:28;7.25;;;4.30;;
65757;SDS011;52495;52.208;5.158;2022-08-14T10:18:03;4.85;;;4.35;;
65757;SDS011;52495;52.208;5.158;2022-08-14T10:20:35;5.85;;;4.00;;
65757;SDS011;52495;52.208;5.158;2022-08-14T10:23:09;4.82;;;4.03;;
65757;SDS011;52495;52.208;5.158;2022-08-14T10:25:38;5.80;;;4.90;;
65757;SDS011;52495;52.208;5.158;2022-08-14T10:28:07;6.35;;;5.18;;
65757;SDS011;52495;52.208;5.158;2022-08-14T10:30:39;6.35;;;4.68;;
65757;SDS011;52495;52.208;5.158;2022-08-14T10:33:07;7.05;;;4.55;;
65757;SDS011;52495;52.208;5.158;2022-08-14T10:35:42;6.43;;;4.55;;
65757;SDS011;52495;52.208;5.158;2022-08-14T10:38:09;4.63;;;3.72;;
65757;SDS011;52495;52.208;5.158;2022-08-14T10:40:36;4.63;;;4.15;;
65757;SDS011;52495;52.208;5.158;2022-08-14T10:43:14;5.70;;;4.28;;
65757;SDS011;52495;52.208;5.158;2022-08-14T10:45:51;5.97;;;4.60;;
65757;SDS011;52495;52.208;5.158;2022-08-14T10:48:19;7.68;;;5.18;;
65757;SDS011;52495;52.208;5.158;2022-08-14T10:50:47;5.60;;;4.10;;
65757;SDS011;52495;52.208;5.158;2022-08-14T10:53:25;5.50;;;4.45;;
65757;SDS011;52495;52.208;5.158;2022-08-14T10:55:56;6.57;;;4.18;;
65757;SDS011;52495;52.208;5.158;2022-08-14T10:58:26;6.32;;;3.83;;
65757;SDS011;52495;52.208;5.158;2022-08-14T11:00:55;6.72;;;4.15;;
65757;SDS011;52495;52.208;5.158;2022-08-14T11:03:23;7.50;;;4.43;;
65757;SDS011;52495;52.208;5.158;2022-08-14T11:05:52;5.68;;;4.50;;
65757;SDS011;52495;52.208;5.158;2022-08-14T11:08:28;5.03;;;4.50;;
65757;SDS011;52495;52.208;5.158;2022-08-14T11:10:57;5.30;;;4.10;;
65757;SDS011;52495;52.208;5.158;2022-08-14T11:13:26;5.63;;;4.60;;
65757;SDS011;52495;52.208;5.158;2022-08-14T11:15:54;6.68;;;4.00;;
65757;SDS011;52495;52.208;5.158;2022-08-14T11:18:27;5.55;;;4.35;;
65757;SDS011;52495;52.208;5.158;2022-08-14T11:20:58;6.13;;;3.85;;
65757;SDS011;52495;52.208;5.158;2022-08-14T11:23:26;5.93;;;4.18;;
65757;SDS011;52495;52.208;5.158;2022-08-14T11:25:55;6.03;;;3.78;;
65757;SDS011;52495;52.208;5.158;2022-08-14T11:28:24;4.10;;;3.53;;
65757;SDS011;52495;52.208;5.158;2022-08-14T11:30:53;3.53;;;3.00;;
65757;SDS011;52495;52.208;5.158;2022-08-14T11:33:21;6.22;;;3.60;;
65757;SDS011;52495;52.208;5.158;2022-08-14T11:35:49;4.30;;;3.90;;
65757;SDS011;52495;52.208;5.158;2022-08-14T11:38:17;5.32;;;3.70;;
65757;SDS011;52495;52.208;5.158;2022-08-14T11:40:45;5.68;;;4.00;;
65757;SDS011;52495;52.208;5.158;2022-08-14T11:43:13;5.75;;;4.10;;
65757;SDS011;52495;52.208;5.158;2022-08-14T11:45:44;5.07;;;3.92;;
65757;SDS011;52495;52.208;5.158;2022-08-14T11:48:13;4.53;;;3.63;;
65757;SDS011;52495;52.208;5.158;2022-08-14T11:50:41;3.88;;;3.47;;
65757;SDS011;52495;52.208;5.158;2022-08-14T11:53:18;4.72;;;3.60;;
65757;SDS011;52495;52.208;5.158;2022-08-14T11:55:46;5.18;;;3.58;;
65757;SDS011;52495;52.208;5.158;2022-08-14T11:58:23;4.90;;;3.20;;
65757;SDS011;52495;52.208;5.158;2022-08-14T12:00:53;3.90;;;3.50;;
65757;SDS011;52495;52.208;5.158;2022-08-14T12:03:33;4.50;;;4.10;;
65757;SDS011;52495;52.208;5.158;2022-08-14T12:06:04;4.32;;;3.67;;
65757;SDS011;52495;52.208;5.158;2022-08-14T12:08:34;6.13;;;3.90;;
65757;SDS011;52495;52.208;5.158;2022-08-14T12:11:02;5.55;;;3.65;;
65757;SDS011;52495;52.208;5.158;2022-08-14T12:13:31;5.93;;;3.70;;
65757;SDS011;52495;52.208;5.158;2022-08-14T12:15:59;5.95;;;3.80;;
65757;SDS011;52495;52.208;5.158;2022-08-14T12:18:28;5.28;;;3.72;;
65757;SDS011;52495;52.208;5.158;2022-08-14T12:20:56;7.53;;;3.55;;
65757;SDS011;52495;52.208;5.158;2022-08-14T12:23:24;4.60;;;3.33;;
65757;SDS011;52495;52.208;5.158;2022-08-14T12:26:02;3.83;;;2.67;;
65757;SDS011;52495;52.208;5.158;2022-08-14T12:28:29;6.18;;;3.28;;
65757;SDS011;52495;52.208;5.158;2022-08-14T12:30:56;3.78;;;3.30;;
65757;SDS011;52495;52.208;5.158;2022-08-14T12:33:24;6.20;;;3.40;;
65757;SDS011;52495;52.208;5.158;2022-08-14T12:35:54;8.15;;;3.20;;
65757;SDS011;52495;52.208;5.158;2022-08-14T12:38:30;4.53;;;3.42;;
65757;SDS011;52495;52.208;5.158;2022-08-14T12:41:00;6.28;;;3.53;;
65757;SDS011;52495;52.208;5.158;2022-08-14T12:43:30;4.95;;;2.70;;
65757;SDS011;52495;52.208;5.158;2022-08-14T12:45:58;5.57;;;3.30;;
65757;SDS011;52495;52.208;5.158;2022-08-14T12:48:24;4.55;;;3.28;;
65757;SDS011;52495;52.208;5.158;2022-08-14T12:50:53;4.13;;;3.17;;
65757;SDS011;52495;52.208;5.158;2022-08-14T12:53:20;3.53;;;3.10;;
65757;SDS011;52495;52.208;5.158;2022-08-14T12:55:56;5.57;;;3.85;;
65757;SDS011;52495;52.208;5.158;2022-08-14T12:58:27;3.65;;;2.95;;
65757;SDS011;52495;52.208;5.158;2022-08-14T13:00:55;5.05;;;3.53;;
65757;SDS011;52495;52.208;5.158;2022-08-14T13:03:22;4.03;;;3.22;;
65757;SDS011;52495;52.208;5.158;2022-08-14T13:05:50;3.90;;;3.10;;
65757;SDS011;52495;52.208;5.158;2022-08-14T13:08:17;6.93;;;3.50;;
65757;SDS011;52495;52.208;5.158;2022-08-14T13:10:47;4.75;;;3.78;;
65757;SDS011;52495;52.208;5.158;2022-08-14T13:13:15;4.35;;;3.50;;
65757;SDS011;52495;52.208;5.158;2022-08-14T13:15:45;4.50;;;3.85;;
65757;SDS011;52495;52.208;5.158;2022-08-14T13:18:17;4.25;;;3.53;;
65757;SDS011;52495;52.208;5.158;2022-08-14T13:20:47;3.90;;;3.45;;
65757;SDS011;52495;52.208;5.158;2022-08-14T13:23:14;6.95;;;4.05;;
65757;SDS011;52495;52.208;5.158;2022-08-14T13:25:43;8.35;;;4.07;;
65757;SDS011;52495;52.208;5.158;2022-08-14T13:28:16;4.03;;;3.63;;
65757;SDS011;52495;52.208;5.158;2022-08-14T13:30:45;5.85;;;4.18;;
65757;SDS011;52495;52.208;5.158;2022-08-14T13:33:14;4.47;;;3.80;;
65757;SDS011;52495;52.208;5.158;2022-08-14T13:35:46;5.28;;;3.95;;
65757;SDS011;52495;52.208;5.158;2022-08-14T13:38:15;5.18;;;4.10;;
65757;SDS011;52495;52.208;5.158;2022-08-14T13:40:45;7.13;;;3.80;;
65757;SDS011;52495;52.208;5.158;2022-08-14T13:43:14;5.72;;;3.13;;
65757;SDS011;52495;52.208;5.158;2022-08-14T13:45:42;6.40;;;3.95;;
65757;SDS011;52495;52.208;5.158;2022-08-14T13:48:13;5.43;;;4.10;;
65757;SDS011;52495;52.208;5.158;2022-08-14T13:50:40;5.63;;;4.00;;
65757;SDS011;52495;52.208;5.158;2022-08-14T13:53:12;6.28;;;4.00;;
65757;SDS011;52495;52.208;5.158;2022-08-14T13:55:41;4.75;;;3.85;;
65757;SDS011;52495;52.208;5.158;2022-08-14T13:58:11;5.07;;;3.67;;
65757;SDS011;52495;52.208;5.158;2022-08-14T14:00:40;6.68;;;4.03;;
65757;SDS011;52495;52.208;5.158;2022-08-14T14:03:07;4.53;;;3.83;;
65757;SDS011;52495;52.208;5.158;2022-08-14T14:05:36;5.28;;;4.47;;
65757;SDS011;52495;52.208;5.158;2022-08-14T14:08:04;7.43;;;3.85;;
65757;SDS011;52495;52.208;5.158;2022-08-14T14:10:33;4.53;;;4.03;;
65757;SDS011;52495;52.208;5.158;2022-08-14T14:13:02;4.45;;;3.67;;
65757;SDS011;52495;52.208;5.158;2022-08-14T14:15:29;9.65;;;4.13;;
65757;SDS011;52495;52.208;5.158;2022-08-14T14:17:56;4.70;;;3.88;;
65757;SDS011;52495;52.208;5.158;2022-08-14T14:20:24;4.47;;;3.97;;
65757;SDS011;52495;52.208;5.158;2022-08-14T14:22:52;7.05;;;3.80;;
65757;SDS011;52495;52.208;5.158;2022-08-14T14:25:19;5.70;;;3.92;;
65757;SDS011;52495;52.208;5.158;2022-08-14T14:27:46;4.85;;;3.90;;
65757;SDS011;52495;52.208;5.158;2022-08-14T14:30:15;6.00;;;3.90;;
65757;SDS011;52495;52.208;5.158;2022-08-14T14:32:46;5.07;;;4.28;;
65757;SDS011;52495;52.208;5.158;2022-08-14T14:35:14;5.10;;;3.83;;
65757;SDS011;52495;52.208;5.158;2022-08-14T14:37:43;4.72;;;3.67;;
65757;SDS011;52495;52.208;5.158;2022-08-14T14:40:12;6.47;;;4.10;;
65757;SDS011;52495;52.208;5.158;2022-08-14T14:42:43;5.50;;;3.90;;
65757;SDS011;52495;52.208;5.158;2022-08-14T14:45:12;4.00;;;3.60;;
65757;SDS011;52495;52.208;5.158;2022-08-14T14:47:40;4.60;;;4.20;;
65757;SDS011;52495;52.208;5.158;2022-08-14T14:50:08;5.43;;;3.90;;
65757;SDS011;52495;52.208;5.158;2022-08-14T14:52:36;4.40;;;3.92;;
65757;SDS011;52495;52.208;5.158;2022-08-14T14:55:04;6.97;;;4.75;;
65757;SDS011;52495;52.208;5.158;2022-08-14T14:57:34;5.28;;;4.47;;
65757;SDS011;52495;52.208;5.158;2022-08-14T15:00:03;5.25;;;4.43;;